Time;durP1;ratioP1;P1;durP2;ratioP2;P2;SDS_P1;SDS_P2;PMS_P1;PMS_P2;Temp;Humidity;BMP_temperature;BMP_pressure;BME280_temperature;BME280_humidity;BME280_pressure;Samples;Min_cycle;Max_cycle;Signal;HPM_P1;HPM_P2
2022/08/30 00:01:24;;;;;;;13.30;4.82;;;;;;;19.22;60.19;101934.44;6214076;23;20011;-95
2022/08/30 00:03:51;;;;;;;8.65;4.28;;;;;;;19.29;61.11;101934.94;6212169;23;20066;-94
2022/08/30 00:06:18;;;;;;;7.25;4.28;;;;;;;19.20;61.17;101920.25;6213290;23;20447;-94
2022/08/30 00:08:44;;;;;;;6.90;4.43;;;;;;;19.21;62.32;101929.16;6213912;23;20077;-95
2022/08/30 00:11:14;;;;;;;5.70;4.18;;;;;;;19.25;61.52;101918.16;6188218;23;20498;-95
2022/08/30 00:13:41;;;;;;;7.85;4.63;;;;;;;19.24;61.96;101916.44;6213544;23;20356;-94
2022/08/30 00:16:07;;;;;;;7.22;4.45;;;;;;;19.20;61.35;101922.91;6213081;23;20015;-94
2022/08/30 00:18:34;;;;;;;13.02;4.88;;;;;;;19.18;60.47;101918.63;6214429;23;20004;-95
2022/08/30 00:21:00;;;;;;;8.00;4.82;;;;;;;19.02;62.50;101913.28;6211512;23;20028;-94
2022/08/30 00:23:25;;;;;;;10.07;4.53;;;;;;;19.08;61.98;101916.47;6214287;23;20098;-95
2022/08/30 00:25:51;;;;;;;7.25;4.65;;;;;;;18.96;60.81;101906.47;6214540;23;20031;-94
2022/08/30 00:28:16;;;;;;;10.60;4.80;;;;;;;19.05;62.79;101922.00;6214636;23;20026;-95
2022/08/30 00:30:43;;;;;;;8.20;5.25;;;;;;;19.03;62.78;101928.44;6213502;23;20011;-94
2022/08/30 00:33:09;;;;;;;9.25;4.95;;;;;;;18.97;63.47;101931.44;6187755;23;20456;-94
2022/08/30 00:35:37;;;;;;;5.45;4.40;;;;;;;18.89;62.26;101918.50;6210833;23;20046;-94
2022/08/30 00:38:03;;;;;;;8.45;4.68;;;;;;;18.77;63.31;101905.81;6211003;23;20031;-92
2022/08/30 00:40:28;;;;;;;8.20;4.72;;;;;;;18.80;63.28;101924.41;6213493;23;20030;-93
2022/08/30 00:42:57;;;;;;;8.13;4.93;;;;;;;18.81;63.21;101932.34;6213931;23;20011;-94
2022/08/30 00:45:28;;;;;;;10.85;4.97;;;;;;;18.70;63.62;101934.78;6189655;23;20131;-93
2022/08/30 00:47:53;;;;;;;7.00;4.38;;;;;;;18.65;63.63;101910.00;6214212;23;20217;-95
2022/08/30 00:50:23;;;;;;;8.63;5.00;;;;;;;18.71;63.36;101915.06;6241302;23;20008;-95
2022/08/30 00:52:51;;;;;;;7.85;4.97;;;;;;;18.82;63.01;101928.69;6214661;23;20008;-94
2022/08/30 00:55:18;;;;;;;5.75;4.68;;;;;;;18.90;63.04;101927.41;6214147;23;20096;-95
2022/08/30 00:57:46;;;;;;;7.28;4.88;;;;;;;18.91;63.18;101921.94;6189682;23;20536;-95
2022/08/30 01:00:14;;;;;;;9.60;5.25;;;;;;;18.82;63.97;101911.75;6214575;23;20413;-93
2022/08/30 01:02:39;;;;;;;7.43;4.60;;;;;;;18.80;64.10;101937.81;6186996;23;20146;-95
2022/08/30 01:05:09;;;;;;;5.55;4.85;;;;;;;18.84;63.95;101942.03;6211367;23;20058;-93
2022/08/30 01:07:35;;;;;;;9.07;4.70;;;;;;;18.74;63.39;101932.78;6213439;23;20000;-94
2022/08/30 01:10:02;;;;;;;9.10;4.70;;;;;;;18.69;63.56;101935.72;6239539;23;20014;-94
2022/08/30 01:12:28;;;;;;;7.78;4.93;;;;;;;18.74;64.38;101935.44;6239604;23;20003;-94
2022/08/30 01:14:55;;;;;;;7.72;5.13;;;;;;;18.85;63.45;101944.63;6210915;23;20011;-94
2022/08/30 01:17:20;;;;;;;10.73;5.10;;;;;;;18.90;64.20;101943.50;6213369;23;20012;-94
2022/08/30 01:19:48;;;;;;;6.55;4.70;;;;;;;18.97;64.08;101950.22;6188860;23;20012;-93
2022/08/30 01:22:57;;;;;;;7.10;4.60;;;;;;;18.96;62.34;101941.31;6214116;23;20012;-94
2022/08/30 01:25:27;;;;;;;10.27;5.10;;;;;;;18.88;62.65;101948.06;6211750;23;20615;-95
2022/08/30 01:28:00;;;;;;;10.55;5.13;;;;;;;18.88;63.75;101940.00;6214678;23;20031;-94
2022/08/30 01:30:26;;;;;;;8.15;5.00;;;;;;;18.96;63.43;101948.50;6216316;23;20015;-94
2022/08/30 01:32:57;;;;;;;7.55;4.97;;;;;;;18.92;63.70;101954.97;6215324;23;20008;-94
2022/08/30 01:35:23;;;;;;;7.38;4.90;;;;;;;18.93;63.05;101954.00;6216042;23;20446;-94
2022/08/30 01:37:49;;;;;;;7.30;5.47;;;;;;;18.84;63.43;101940.22;6215955;23;20008;-94
2022/08/30 01:40:18;;;;;;;8.52;5.15;;;;;;;18.80;63.51;101941.34;6214934;23;20115;-94
2022/08/30 01:42:44;;;;;;;7.82;5.15;;;;;;;18.76;64.50;101938.91;6215132;23;20167;-94
2022/08/30 01:45:10;;;;;;;8.80;6.25;;;;;;;18.63;64.87;101929.81;6213960;23;20008;-92
2022/08/30 01:47:36;;;;;;;10.57;5.38;;;;;;;18.53;65.09;101926.78;6242116;23;20004;-93
2022/08/30 01:50:02;;;;;;;6.82;5.40;;;;;;;18.58;64.80;101946.16;6216002;23;20023;-93
2022/08/30 01:52:27;;;;;;;9.73;5.55;;;;;;;18.55;64.39;101932.91;6216600;23;20035;-93
2022/08/30 01:54:53;;;;;;;7.45;5.07;;;;;;;18.55;64.55;101943.63;6215338;23;20328;-93
2022/08/30 01:57:21;;;;;;;7.40;4.75;;;;;;;18.40;64.49;101928.41;6241964;23;20038;-94
2022/08/30 01:59:49;;;;;;;8.38;4.90;;;;;;;18.47;64.72;101938.72;6214880;23;20004;-93
2022/08/30 02:02:17;;;;;;;8.85;5.40;;;;;;;18.46;64.52;101938.78;6215726;23;20432;-94
2022/08/30 02:04:42;;;;;;;8.13;5.40;;;;;;;18.39;64.48;101937.41;6241554;23;20004;-95
2022/08/30 02:07:08;;;;;;;7.13;5.85;;;;;;;18.35;65.51;101942.94;6215109;23;20599;-93
2022/08/30 02:09:34;;;;;;;8.45;5.95;;;;;;;18.19;66.17;101915.28;6214441;23;20004;-94
2022/08/30 02:11:59;;;;;;;7.43;5.13;;;;;;;18.33;65.55;101933.28;6215033;23;20000;-94
2022/08/30 02:14:25;;;;;;;8.35;6.00;;;;;;;18.25;65.61;101933.69;6213730;23;20412;-95
2022/08/30 02:16:50;;;;;;;9.55;5.63;;;;;;;18.30;65.78;101933.44;6215542;23;20333;-94
2022/08/30 02:19:16;;;;;;;8.65;5.45;;;;;;;18.24;65.61;101928.41;6213991;23;20011;-94
2022/08/30 02:21:42;;;;;;;7.93;5.47;;;;;;;18.26;65.73;101929.19;6190916;23;20119;-94
2022/08/30 02:24:07;;;;;;;8.18;5.15;;;;;;;18.18;65.15;101921.56;6189795;23;20032;-94
2022/08/30 02:26:35;;;;;;;6.57;5.30;;;;;;;18.15;65.69;101926.25;6215207;23;20431;-93
2022/08/30 02:29:00;;;;;;;7.65;5.50;;;;;;;18.06;66.35;101922.25;6216473;23;20024;-95
2022/08/30 02:31:25;;;;;;;7.50;5.38;;;;;;;18.13;65.86;101936.16;6214214;23;20012;-94
2022/08/30 02:33:53;;;;;;;11.13;5.78;;;;;;;18.08;65.77;101926.56;6214334;23;20008;-93
2022/08/30 02:36:20;;;;;;;6.63;5.88;;;;;;;18.13;66.51;101928.13;6213835;23;20008;-94
2022/08/30 02:38:46;;;;;;;6.85;5.88;;;;;;;18.12;66.50;101927.25;6214450;23;20278;-94
2022/08/30 02:41:12;;;;;;;8.23;5.72;;;;;;;18.08;65.46;101925.69;6215165;23;20016;-94
2022/08/30 02:43:37;;;;;;;9.43;5.65;;;;;;;18.01;66.01;101917.16;6215726;23;20462;-94
2022/08/30 02:46:03;;;;;;;8.60;5.88;;;;;;;17.97;66.72;101920.94;6213916;23;20023;-94
2022/08/30 02:48:28;;;;;;;6.35;5.72;;;;;;;17.91;66.85;101917.75;6214863;23;20004;-94
2022/08/30 02:50:54;;;;;;;8.63;5.65;;;;;;;17.90;66.47;101913.31;6242645;23;20004;-93
2022/08/30 02:53:20;;;;;;;7.43;5.88;;;;;;;17.95;66.50;101930.88;6214564;23;20037;-94
2022/08/30 02:55:47;;;;;;;7.88;5.70;;;;;;;17.95;67.15;101929.97;6214925;23;20000;-94
2022/08/30 02:58:12;;;;;;;7.57;5.40;;;;;;;17.88;66.44;101910.72;6216041;23;20047;-95
2022/08/30 03:00:40;;;;;;;10.95;6.38;;;;;;;17.94;66.69;101923.75;6213734;23;20007;-95
2022/08/30 03:03:06;;;;;;;7.22;5.97;;;;;;;17.87;66.94;101908.16;6191729;23;20011;-94
2022/08/30 03:05:32;;;;;;;10.45;5.75;;;;;;;17.87;66.76;101902.78;6215122;23;20004;-94
2022/08/30 03:07:58;;;;;;;9.40;5.90;;;;;;;17.79;66.54;101892.50;6215417;23;20000;-95
2022/08/30 03:10:26;;;;;;;7.90;6.05;;;;;;;17.76;66.97;101904.19;6215347;23;20004;-94
2022/08/30 03:12:52;;;;;;;8.10;6.80;;;;;;;17.74;66.74;101906.13;6214952;23;20016;-94
2022/08/30 03:15:17;;;;;;;8.02;6.35;;;;;;;17.75;67.40;101905.16;6213509;23;20039;-95
2022/08/30 03:17:43;;;;;;;11.07;6.93;;;;;;;17.70;67.35;101899.16;6214761;23;20004;-93
2022/08/30 03:20:10;;;;;;;10.07;6.90;;;;;;;17.70;67.68;101906.31;6214251;23;20012;-94
2022/08/30 03:22:36;;;;;;;9.20;6.50;;;;;;;17.73;67.21;101912.41;6215999;23;20404;-94
2022/08/30 03:25:03;;;;;;;10.43;6.70;;;;;;;17.67;67.18;101899.31;6213202;23;20099;-95
2022/08/30 03:27:28;;;;;;;9.68;6.90;;;;;;;17.73;67.39;101912.41;6213506;23;20000;-94
2022/08/30 03:29:54;;;;;;;9.65;6.57;;;;;;;17.58;67.97;101889.13;6211179;23;20095;-94
2022/08/30 03:32:19;;;;;;;7.40;6.65;;;;;;;17.75;67.58;101915.00;6211897;23;20055;-95
2022/08/30 03:34:45;;;;;;;9.05;7.05;;;;;;;17.77;66.90;101916.66;6211737;23;20313;-94
2022/08/30 03:37:10;;;;;;;8.90;6.90;;;;;;;17.78;66.97;101918.38;6213504;23;20092;-95
2022/08/30 03:39:36;;;;;;;10.63;6.82;;;;;;;17.69;66.74;101900.13;6188090;23;20008;-95
2022/08/30 03:42:01;;;;;;;12.00;6.82;;;;;;;17.79;67.15;101908.53;6190175;23;20019;-94
2022/08/30 03:44:27;;;;;;;8.05;6.68;;;;;;;17.79;67.12;101903.19;6212904;23;20027;-95
2022/08/30 03:46:52;;;;;;;7.80;6.47;;;;;;;17.68;67.75;101892.19;6214904;23;20034;-94
2022/08/30 03:49:19;;;;;;;8.57;6.75;;;;;;;17.73;67.57;101909.75;6213666;23;20004;-94
2022/08/30 03:51:45;;;;;;;8.10;6.70;;;;;;;17.66;67.60;101905.63;6214269;23;20099;-94
2022/08/30 03:54:10;;;;;;;7.78;6.88;;;;;;;17.59;67.54;101902.41;6211560;23;20035;-93
2022/08/30 03:56:36;;;;;;;8.70;7.03;;;;;;;17.53;67.51;101894.72;6212482;23;20003;-95
2022/08/30 03:59:01;;;;;;;8.52;7.07;;;;;;;17.54;67.62;101908.94;6214121;23;20032;-94
2022/08/30 04:01:26;;;;;;;7.97;7.18;;;;;;;17.52;67.94;101914.34;6187996;23;20132;-93
2022/08/30 04:03:52;;;;;;;11.52;7.95;;;;;;;17.49;67.89;101908.34;6213055;23;20531;-94
2022/08/30 04:06:17;;;;;;;9.93;7.55;;;;;;;17.41;68.11;101902.50;6213758;23;20455;-94
2022/08/30 04:08:44;;;;;;;8.75;7.18;;;;;;;17.40;68.27;101900.78;6213973;23;20034;-94
2022/08/30 04:11:10;;;;;;;9.10;8.13;;;;;;;17.31;68.75;101907.47;6211180;23;20085;-95
2022/08/30 04:13:35;;;;;;;9.88;7.55;;;;;;;17.29;68.52;101907.53;6239884;23;20079;-93
2022/08/30 04:16:00;;;;;;;9.63;7.78;;;;;;;17.35;68.37;101914.38;6239713;23;20028;-94
2022/08/30 04:18:26;;;;;;;9.80;7.68;;;;;;;17.30;68.57;101903.94;6212596;23;20040;-94
2022/08/30 04:20:52;;;;;;;9.73;7.30;;;;;;;17.29;68.73;101909.34;6238671;23;20000;-93
2022/08/30 04:23:18;;;;;;;11.30;8.55;;;;;;;17.22;68.91;101897.25;6214059;23;20012;-96
2022/08/30 04:25:44;;;;;;;10.70;8.25;;;;;;;17.16;68.50;101893.09;6212204;23;20501;-94
2022/08/30 04:28:10;;;;;;;11.10;8.48;;;;;;;17.19;69.32;101918.78;6239364;23;20023;-93
2022/08/30 04:30:43;;;;;;;14.23;8.75;;;;;;;17.19;68.57;101918.78;6213461;23;20439;-96
2022/08/30 04:33:10;;;;;;;11.43;8.15;;;;;;;17.17;68.27;101915.31;6213562;23;20056;-94
2022/08/30 04:35:35;;;;;;;10.00;7.88;;;;;;;17.19;69.04;101911.63;6213309;23;20011;-93
2022/08/30 04:38:01;;;;;;;9.95;7.85;;;;;;;17.16;68.57;101911.78;6212560;23;20008;-93
2022/08/30 04:40:26;;;;;;;10.65;8.77;;;;;;;17.20;68.30;101932.03;6211978;23;20035;-94
2022/08/30 04:42:53;;;;;;;12.43;8.93;;;;;;;17.16;69.05;101916.25;6214225;23;20007;-92
2022/08/30 04:45:19;;;;;;;13.65;9.82;;;;;;;17.16;68.80;101930.50;6210801;23;20004;-94
2022/08/30 04:47:44;;;;;;;10.05;7.80;;;;;;;17.21;68.04;101935.63;6238137;23;19996;-94
2022/08/30 04:50:12;;;;;;;11.35;9.55;;;;;;;17.20;69.15;101929.38;6213539;23;20007;-94
2022/08/30 04:52:38;;;;;;;11.95;8.13;;;;;;;17.11;69.13;101924.50;6212478;23;20015;-95
2022/08/30 04:55:05;;;;;;;10.05;8.50;;;;;;;17.18;68.91;101933.09;6240506;23;19996;-94
2022/08/30 04:57:30;;;;;;;13.48;8.98;;;;;;;17.06;69.25;101930.06;6213820;23;20087;-94
2022/08/30 04:59:55;;;;;;;9.45;8.43;;;;;;;17.06;69.33;101931.88;6211668;23;20483;-93
2022/08/30 05:02:21;;;;;;;14.95;9.35;;;;;;;17.01;69.39;101928.56;6214626;23;20027;-93
2022/08/30 05:07:31;;;;;;;11.27;9.10;;;;;;;17.07;68.98;101941.66;6239276;23;20011;-94
2022/08/30 05:09:57;;;;;;;12.35;9.68;;;;;;;17.00;70.05;101934.88;6215411;23;20351;-93
2022/08/30 05:17:33;;;;;;;11.07;9.13;;;;;;;16.83;70.05;101914.31;6243312;23;20025;-92
2022/08/30 05:20:00;;;;;;;11.95;9.43;;;;;;;16.88;69.58;101922.09;6193484;23;20014;-92
2022/08/30 05:22:26;;;;;;;14.70;10.20;;;;;;;17.01;69.68;101941.94;6194201;23;20015;-93
2022/08/30 05:24:51;;;;;;;14.00;9.32;;;;;;;16.91;70.09;101929.97;6192876;23;20004;-93
2022/08/30 05:27:17;;;;;;;13.43;10.68;;;;;;;17.03;70.05;101948.94;6192657;23;20004;-93
2022/08/30 05:29:42;;;;;;;12.50;9.80;;;;;;;17.05;70.38;101959.53;6191637;23;20019;-93
2022/08/30 05:32:08;;;;;;;12.98;9.98;;;;;;;16.93;70.42;101936.97;6191440;23;20376;-93
2022/08/30 05:34:33;;;;;;;15.45;9.85;;;;;;;17.06;69.98;101961.25;6191558;23;20004;-93
2022/08/30 05:36:59;;;;;;;13.68;10.65;;;;;;;16.94;70.98;101949.41;6192322;23;20004;-93
2022/08/30 05:39:25;;;;;;;15.18;10.70;;;;;;;16.87;71.24;101949.75;6192567;23;20034;-93
2022/08/30 05:41:56;;;;;;;13.40;10.63;;;;;;;16.92;70.57;101945.06;6194561;23;20009;-93
2022/08/30 05:44:21;;;;;;;13.68;10.52;;;;;;;17.04;70.10;101953.34;6192019;23;20008;-94
2022/08/30 05:46:47;;;;;;;13.35;10.82;;;;;;;16.97;69.80;101925.22;6193623;23;20012;-93
2022/08/30 05:49:14;;;;;;;16.92;11.48;;;;;;;17.07;69.49;101930.97;6192484;23;20028;-94
2022/08/30 05:51:42;;;;;;;13.88;10.20;;;;;;;17.04;69.91;101928.44;6195612;23;20001;-92
2022/08/30 05:54:08;;;;;;;15.93;11.45;;;;;;;17.03;69.60;101924.03;6192666;23;20004;-93
2022/08/30 05:56:36;;;;;;;14.57;11.10;;;;;;;17.21;69.07;101944.50;6193019;23;20087;-92
2022/08/30 05:59:05;;;;;;;14.30;11.35;;;;;;;17.21;68.93;101931.13;6193959;23;20080;-94
2022/08/30 06:01:31;;;;;;;12.40;10.88;;;;;;;17.46;69.06;101964.63;6197357;23;20009;-94
2022/08/30 06:04:00;;;;;;;15.90;11.10;;;;;;;17.42;69.09;101947.00;6192875;23;20009;-94
2022/08/30 06:06:26;;;;;;;16.48;12.05;;;;;;;17.51;68.96;101965.25;6196085;23;20008;-93
2022/08/30 06:08:52;;;;;;;13.35;11.02;;;;;;;17.52;69.27;101961.63;6192792;23;19996;-92
2022/08/30 06:11:21;;;;;;;17.00;11.63;;;;;;;17.30;68.86;101922.66;6193850;23;20008;-92
2022/08/30 06:13:48;;;;;;;13.75;11.48;;;;;;;17.40;69.17;101932.88;6192475;23;20080;-94
2022/08/30 06:16:19;;;;;;;16.70;11.90;;;;;;;17.38;69.06;101929.38;6191547;23;20440;-94
2022/08/30 06:22:06;;;;;;;14.38;11.43;;;;;;;17.60;68.56;101954.09;6249964;23;20420;-93
2022/08/30 06:24:32;;;;;;;12.95;11.35;;;;;;;17.54;68.46;101933.88;6221759;23;20012;-93
2022/08/30 06:26:57;;;;;;;12.73;11.07;;;;;;;17.58;68.18;101929.25;6223755;23;20379;-94
2022/08/30 06:29:23;;;;;;;14.77;11.95;;;;;;;17.68;68.27;101959.91;6222082;23;20343;-95
2022/08/30 06:31:49;;;;;;;13.45;10.25;;;;;;;17.62;67.43;101930.78;6224437;23;20027;-95
2022/08/30 06:34:15;;;;;;;13.57;10.63;;;;;;;17.69;67.86;101934.88;6222990;23;20011;-94
2022/08/30 06:36:41;;;;;;;12.40;11.07;;;;;;;17.78;67.99;101933.56;6224078;23;20011;-95
2022/08/30 06:39:07;;;;;;;14.88;10.85;;;;;;;17.93;67.58;101945.25;6223338;23;20004;-94
2022/08/30 06:41:34;;;;;;;13.35;10.73;;;;;;;17.96;66.83;101937.94;6224558;23;20319;-94
2022/08/30 06:44:01;;;;;;;15.98;11.15;;;;;;;18.03;67.62;101938.47;6222921;23;20374;-94
2022/08/30 06:46:29;;;;;;;13.00;9.90;;;;;;;18.09;66.44;101944.38;6227018;23;20000;-92
2022/08/30 06:48:56;;;;;;;13.00;10.07;;;;;;;18.31;66.50;101967.28;6223195;23;20007;-93
2022/08/30 06:54:43;;;;;;;11.25;10.05;;;;;;;18.32;65.82;101934.19;6259424;23;20030;-93
2022/08/30 07:00:36;;;;;;;15.15;9.80;;;;;;;18.74;65.67;101944.34;6259692;23;20011;-95
2022/08/30 07:09:43;;;;;;;9.75;8.70;;;;;;;18.94;64.52;101937.00;6162893;23;20060;-95
2022/08/30 07:12:21;;;;;;;12.65;9.02;;;;;;;18.98;63.97;101922.44;6142708;23;20016;-95
2022/08/30 07:15:12;;;;;;;11.05;9.13;;;;;;;19.09;63.31;101922.69;6127913;23;20014;-93
2022/08/30 07:20:57;;;;;;;13.85;8.88;;;;;;;19.69;62.42;101970.13;6173586;23;20021;-95
2022/08/30 07:23:22;;;;;;;12.55;8.90;;;;;;;19.55;62.85;101944.09;6135454;23;20044;-94
2022/08/30 07:25:49;;;;;;;9.57;8.57;;;;;;;19.73;62.33;101943.03;6142524;23;20005;-94
2022/08/30 07:28:55;;;;;;;9.10;8.18;;;;;;;20.16;61.76;101977.09;6138822;23;19994;-94
2022/08/30 07:31:27;;;;;;;9.05;8.05;;;;;;;20.37;61.17;101965.84;6133859;23;20044;-92
2022/08/30 07:37:17;;;;;;;8.95;7.82;;;;;;;20.87;59.23;101959.06;6155821;23;20013;-94
2022/08/30 07:39:43;;;;;;;9.30;7.97;;;;;;;20.99;58.10;101945.78;6163295;23;20008;-95
2022/08/30 07:42:08;;;;;;;8.50;7.60;;;;;;;21.32;57.14;101970.44;6221966;23;20075;-91
2022/08/30 07:44:33;;;;;;;10.25;7.25;;;;;;;21.45;55.94;101966.91;6243088;23;20004;-92
2022/08/30 07:46:58;;;;;;;8.55;7.78;;;;;;;21.51;56.68;101942.28;6216510;23;20087;-92
2022/08/30 07:52:22;;;;;;;10.45;7.82;;;;;;;22.11;54.53;101982.97;6178456;23;20043;-90
2022/08/30 07:54:47;;;;;;;9.48;7.22;;;;;;;22.19;54.04;101982.41;6151489;23;20013;-91
2022/08/30 07:57:13;;;;;;;10.98;7.22;;;;;;;22.10;53.92;101972.22;6178202;23;20032;-93
2022/08/30 07:59:38;;;;;;;9.85;7.63;;;;;;;22.17;53.99;101972.72;6150757;23;20008;-89
2022/08/30 08:02:03;;;;;;;7.80;7.03;;;;;;;22.37;53.03;101986.47;6151840;23;20422;-92
2022/08/30 08:04:29;;;;;;;8.75;7.07;;;;;;;22.48;53.14;101987.56;6178830;23;20009;-91
2022/08/30 08:06:55;;;;;;;8.73;7.60;;;;;;;22.51;53.67;101979.22;6179576;23;20056;-92
2022/08/30 08:09:20;;;;;;;9.43;6.75;;;;;;;22.70;52.78;101990.38;6179141;23;20659;-90
2022/08/30 08:11:45;;;;;;;8.27;7.32;;;;;;;22.85;52.26;101991.97;6152450;23;20088;-91
2022/08/30 08:14:11;;;;;;;8.15;6.80;;;;;;;22.86;51.26;101971.28;6179233;23;20314;-91
2022/08/30 08:16:37;;;;;;;7.05;6.35;;;;;;;23.03;51.21;101986.22;6152785;23;20012;-91
2022/08/30 08:19:07;;;;;;;11.00;6.28;;;;;;;23.07;51.40;101979.63;6178480;23;20005;-90
2022/08/30 08:21:32;;;;;;;6.43;5.82;;;;;;;23.13;50.78;101966.53;6178290;23;20055;-91
2022/08/30 08:23:57;;;;;;;7.25;6.45;;;;;;;23.40;49.84;101985.16;6152627;23;20080;-91
2022/08/30 08:26:23;;;;;;;6.22;5.63;;;;;;;23.53;50.19;101981.53;6150303;23;20336;-90
2022/08/30 08:28:48;;;;;;;6.32;5.60;;;;;;;23.77;49.67;101992.31;6148689;23;20001;-89
2022/08/30 08:31:20;;;;;;;7.13;5.30;;;;;;;23.95;49.96;101988.16;6178925;23;20005;-89
2022/08/30 08:33:46;;;;;;;7.65;5.18;;;;;;;24.29;48.02;101986.34;6152522;23;20004;-89
2022/08/30 08:36:11;;;;;;;7.80;4.93;;;;;;;24.55;47.02;101989.69;6177340;23;20043;-90
2022/08/30 08:38:37;;;;;;;7.60;4.85;;;;;;;24.61;46.91;101986.47;6152415;23;20109;-91
2022/08/30 08:41:27;;;;;;;8.25;4.70;;;;;;;24.76;47.29;101988.91;6179375;23;20343;-92
2022/08/30 08:43:52;;;;;;;6.90;4.60;;;;;;;24.51;46.69;101988.22;6152594;23;20012;-89
2022/08/30 08:46:36;;;;;;;4.60;4.20;;;;;;;24.59;47.67;101996.56;6179065;23;20008;-91
2022/08/30 08:49:05;;;;;;;5.82;4.13;;;;;;;24.52;47.25;101994.47;6153157;23;20109;-91
2022/08/30 08:54:26;;;;;;;6.30;4.30;;;;;;;25.38;44.83;101994.53;6151149;23;20064;-90
2022/08/30 08:56:52;;;;;;;6.35;4.70;;;;;;;25.25;44.16;102003.84;6152803;23;20009;-91
2022/08/30 08:59:18;;;;;;;7.88;4.18;;;;;;;25.26;45.58;101997.41;6125186;23;20017;-91
2022/08/30 09:01:43;;;;;;;7.88;3.88;;;;;;;25.40;44.24;101987.13;6151218;23;20006;-90
2022/08/30 09:04:23;;;;;;;4.53;4.15;;;;;;;25.79;43.56;102002.88;6126981;23;20108;-89
2022/08/30 09:06:59;;;;;;;4.85;3.80;;;;;;;26.22;43.12;102013.53;6152171;23;20104;-91
2022/08/30 09:09:30;;;;;;;5.05;3.40;;;;;;;26.77;42.34;101986.09;6152303;23;20005;-90
2022/08/30 09:11:55;;;;;;;5.03;4.55;;;;;;;27.48;40.09;102008.47;6125535;23;20617;-90
2022/08/30 09:14:25;;;;;;;4.35;3.53;;;;;;;27.95;39.56;101992.25;6149828;23;20006;-89
2022/08/30 09:17:06;;;;;;;5.97;3.88;;;;;;;28.60;39.35;102001.34;6124880;23;20028;-88
2022/08/30 09:19:40;;;;;;;3.08;2.80;;;;;;;29.10;38.45;102000.94;6124001;23;20009;-88
2022/08/30 09:22:29;;;;;;;2.95;2.70;;;;;;;29.65;37.65;101989.84;6123311;23;20482;-89
2022/08/30 09:25:22;;;;;;;4.78;2.90;;;;;;;30.12;36.36;101994.06;6123201;23;20499;-88
2022/08/30 09:27:50;;;;;;;5.93;3.28;;;;;;;30.56;34.06;101994.00;6125980;23;19998;-89
2022/08/30 09:30:22;;;;;;;4.07;3.28;;;;;;;30.63;34.04;101992.31;6149442;23;20005;-89
2022/08/30 09:33:06;;;;;;;4.32;3.28;;;;;;;30.69;34.60;101997.97;6151627;23;20486;-89
2022/08/30 09:35:34;;;;;;;3.80;2.80;;;;;;;30.68;33.58;102004.47;6125784;23;20062;-89
2022/08/30 09:38:07;;;;;;;3.40;2.95;;;;;;;30.79;34.17;102003.31;6125785;23;20096;-89
2022/08/30 09:40:36;;;;;;;3.45;3.00;;;;;;;31.05;33.66;102008.66;6124748;23;20005;-88
2022/08/30 09:43:16;;;;;;;6.93;3.05;;;;;;;31.18;33.28;102006.31;6151700;23;20599;-88
2022/08/30 09:45:47;;;;;;;4.68;2.95;;;;;;;31.18;32.15;101989.06;6125019;23;20040;-89
2022/08/30 09:48:46;;;;;;;5.38;2.70;;;;;;;31.25;34.46;102003.75;6128091;23;20624;-89
2022/08/30 09:51:12;;;;;;;5.28;2.78;;;;;;;30.90;33.42;101999.41;6152184;23;20024;-89
2022/08/30 09:53:59;;;;;;;4.10;2.53;;;;;;;30.77;33.32;101994.44;6157576;23;20163;-90
2022/08/30 09:57:02;;;;;;;7.35;2.40;;;;;;;30.86;34.04;102000.78;6183671;23;20091;-89
2022/08/30 09:59:42;;;;;;;2.97;2.40;;;;;;;31.31;33.02;101997.66;6156667;23;20341;-89
2022/08/30 10:02:41;;;;;;;3.35;2.40;;;;;;;31.54;33.20;101996.97;6157312;23;20068;-88
2022/08/30 10:05:26;;;;;;;4.35;2.20;;;;;;;30.84;32.73;102006.41;6157849;23;20011;-89
2022/08/30 10:08:16;;;;;;;2.78;1.85;;;;;;;30.83;31.63;101996.50;6183340;23;20618;-89
2022/08/30 10:10:57;;;;;;;4.88;2.33;;;;;;;31.15;32.27;101998.47;6183246;23;20009;-89
2022/08/30 10:13:46;;;;;;;2.95;2.00;;;;;;;31.80;31.43;101992.16;6157627;23;20020;-89
2022/08/30 10:16:34;;;;;;;6.53;2.20;;;;;;;31.71;31.62;101983.13;6155075;23;20009;-90
2022/08/30 10:19:15;;;;;;;8.25;2.30;;;;;;;31.88;30.51;101997.63;6157550;23;20013;-88
2022/08/30 10:21:58;;;;;;;8.48;2.40;;;;;;;32.08;31.14;101995.38;6184501;23;20005;-89
2022/08/30 10:24:34;;;;;;;3.40;1.80;;;;;;;31.94;29.98;101983.28;6180142;23;20043;-89
2022/08/30 10:27:11;;;;;;;3.92;1.88;;;;;;;32.02;30.54;101985.13;6179793;23;20369;-89
2022/08/30 10:29:45;;;;;;;6.82;2.22;;;;;;;32.14;29.59;101977.41;6181990;23;20009;-89
2022/08/30 10:32:13;;;;;;;8.10;2.00;;;;;;;32.45;29.35;101986.53;6181575;23;20602;-89
2022/08/30 10:35:03;;;;;;;2.97;2.38;;;;;;;32.23;30.64;101984.56;6183007;23;20012;-89
2022/08/30 10:37:34;;;;;;;4.72;2.15;;;;;;;32.29;28.53;101992.06;6155371;23;20012;-90
2022/08/30 10:43:03;;;;;;;4.30;1.83;;;;;;;31.81;29.99;101982.94;6184138;23;20345;-89
2022/08/30 10:45:32;;;;;;;4.35;2.22;;;;;;;31.84;29.56;101971.66;6156255;23;20005;-89
2022/08/30 10:48:36;;;;;;;4.45;2.40;;;;;;;32.10;30.98;101987.00;6156823;23;20001;-88
2022/08/30 10:51:09;;;;;;;6.88;2.20;;;;;;;31.66;29.84;101982.78;6038539;23;20025;-88
2022/08/30 10:53:46;;;;;;;3.25;1.90;;;;;;;31.95;30.48;101979.53;6142157;23;20576;-88
2022/08/30 10:56:19;;;;;;;7.13;1.90;;;;;;;32.40;28.81;101975.28;6183608;23;20001;-90
2022/08/30 10:58:45;;;;;;;3.17;1.95;;;;;;;32.49;28.77;101981.56;6156764;23;20005;-89
2022/08/30 11:01:27;;;;;;;3.35;1.60;;;;;;;32.95;28.75;101981.69;6182942;23;20433;-88
2022/08/30 11:04:15;;;;;;;7.63;1.60;;;;;;;33.36;28.79;101978.66;6157222;23;20396;-89
2022/08/30 11:06:59;;;;;;;3.72;1.90;;;;;;;33.23;26.68;101984.75;6157276;23;20005;-90
2022/08/30 11:09:59;;;;;;;5.25;1.70;;;;;;;33.04;28.12;101972.41;6155572;23;20012;-90
2022/08/30 11:12:33;;;;;;;3.88;2.03;;;;;;;32.77;28.22;101973.72;6181111;23;20008;-90
2022/08/30 11:15:11;;;;;;;3.33;2.15;;;;;;;32.30;27.99;101971.88;6182425;23;20001;-90
2022/08/30 11:17:44;;;;;;;6.38;1.77;;;;;;;31.75;29.11;101957.09;6156523;23;20495;-90
2022/08/30 11:20:28;;;;;;;3.70;1.75;;;;;;;32.14;28.88;101959.13;6179822;23;20096;-90
2022/08/30 11:23:12;;;;;;;3.50;2.00;;;;;;;32.46;28.59;101974.59;6157330;23;20008;-90
2022/08/30 11:25:58;;;;;;;2.38;2.00;;;;;;;32.52;28.87;101967.53;6155746;23;20013;-90
2022/08/30 11:28:35;;;;;;;5.03;1.70;;;;;;;32.68;28.37;101974.81;6156045;23;20028;-89
2022/08/30 11:31:04;;;;;;;2.92;1.58;;;;;;;32.71;27.83;101971.72;6155837;23;20009;-91
2022/08/30 11:33:43;;;;;;;3.10;1.60;;;;;;;32.81;28.14;101969.59;6156784;23;20443;-88
2022/08/30 11:36:11;;;;;;;3.92;1.90;;;;;;;32.49;27.43;101982.44;6182520;23;20001;-89
2022/08/30 11:38:36;;;;;;;2.03;1.67;;;;;;;32.23;28.63;101971.75;6183193;23;20425;-91
2022/08/30 11:41:07;;;;;;;3.80;1.97;;;;;;;32.41;27.66;101965.19;6155436;23;20032;-90
2022/08/30 11:43:36;;;;;;;5.97;2.03;;;;;;;32.86;28.98;101975.38;6156361;23;20012;-90
2022/08/30 11:46:25;;;;;;;4.25;1.90;;;;;;;32.64;27.89;101960.66;6183401;23;20485;-90
2022/08/30 11:49:04;;;;;;;3.55;1.80;;;;;;;32.56;27.86;101968.91;6156110;23;20012;-90
2022/08/30 11:51:53;;;;;;;3.03;1.60;;;;;;;32.56;27.77;101970.78;6158459;23;20398;-91
2022/08/30 11:54:49;;;;;;;2.78;2.13;;;;;;;32.45;27.41;101955.59;6183453;23;20001;-91
2022/08/30 11:57:57;;;;;;;5.30;2.17;;;;;;;32.50;28.81;101958.63;6181543;23;20091;-90
2022/08/30 12:00:27;;;;;;;3.08;1.60;;;;;;;32.63;28.07;101958.91;6179170;23;20015;-90
2022/08/30 12:03:04;;;;;;;4.82;1.70;;;;;;;32.73;27.99;101954.06;6182546;23;20009;-91
2022/08/30 12:05:39;;;;;;;4.95;2.05;;;;;;;32.82;27.76;101951.28;6155879;23;20008;-90
2022/08/30 12:08:22;;;;;;;3.35;2.10;;;;;;;32.82;27.27;101943.91;6182430;23;20076;-90
2022/08/30 12:10:56;;;;;;;4.07;2.15;;;;;;;32.55;27.14;101942.56;6151429;23;20087;-91
2022/08/30 12:13:34;;;;;;;2.05;1.70;;;;;;;32.63;27.74;101942.47;6153416;23;20079;-91
2022/08/30 12:16:15;;;;;;;5.28;1.63;;;;;;;33.11;27.00;101926.78;6152764;23;20095;-91